sensor_id;sensor_type;location;lat;lon;timestamp;temperature;humidity
12225;DHT22;6175;50.956;11.064;2022-12-08T00:00:07;2.60;99.90
12225;DHT22;6175;50.956;11.064;2022-12-08T00:02:35;2.60;99.90
12225;DHT22;6175;50.956;11.064;2022-12-08T00:05:03;2.60;99.90
12225;DHT22;6175;50.956;11.064;2022-12-08T00:12:59;2.60;99.90
12225;DHT22;6175;50.956;11.064;2022-12-08T00:15:26;2.30;99.90
12225;DHT22;6175;50.956;11.064;2022-12-08T00:17:55;2.70;99.90
12225;DHT22;6175;50.956;11.064;2022-12-08T00:20:22;2.60;99.90
12225;DHT22;6175;50.956;11.064;2022-12-08T00:25:16;2.70;99.90
12225;DHT22;6175;50.956;11.064;2022-12-08T00:30:10;2.60;99.90
12225;DHT22;6175;50.956;11.064;2022-12-08T00:35:07;2.70;99.90
12225;DHT22;6175;50.956;11.064;2022-12-08T00:47:23;2.70;99.90
12225;DHT22;6175;50.956;11.064;2022-12-08T00:52:19;2.70;99.90
12225;DHT22;6175;50.956;11.064;2022-12-08T00:54:46;2.60;99.90
12225;DHT22;6175;50.956;11.064;2022-12-08T00:57:13;2.60;99.90
12225;DHT22;6175;50.956;11.064;2022-12-08T00:59:40;2.60;99.90
12225;DHT22;6175;50.956;11.064;2022-12-08T01:02:07;2.60;99.90
12225;DHT22;6175;50.956;11.064;2022-12-08T01:07:01;2.60;99.90
12225;DHT22;6175;50.956;11.064;2022-12-08T01:09:30;2.60;99.90
12225;DHT22;6175;50.956;11.064;2022-12-08T01:11:57;2.60;99.90
12225;DHT22;6175;50.956;11.064;2022-12-08T01:14:24;2.50;99.90
12225;DHT22;6175;50.956;11.064;2022-12-08T01:19:18;2.60;99.90
12225;DHT22;6175;50.956;11.064;2022-12-08T01:21:45;2.50;99.90
12225;DHT22;6175;50.956;11.064;2022-12-08T01:24:14;2.60;99.90
12225;DHT22;6175;50.956;11.064;2022-12-08T01:26:43;2.60;99.90
12225;DHT22;6175;50.956;11.064;2022-12-08T01:31:38;2.60;99.90
12225;DHT22;6175;50.956;11.064;2022-12-08T01:34:05;2.70;99.90
12225;DHT22;6175;50.956;11.064;2022-12-08T01:36:33;2.70;99.90
12225;DHT22;6175;50.956;11.064;2022-12-08T01:39:03;2.70;99.90
12225;DHT22;6175;50.956;11.064;2022-12-08T01:41:34;2.70;99.90
12225;DHT22;6175;50.956;11.064;2022-12-08T01:47:09;2.70;99.90
12225;DHT22;6175;50.956;11.064;2022-12-08T01:49:38;2.80;99.90
12225;DHT22;6175;50.956;11.064;2022-12-08T01:52:10;2.80;99.90
12225;DHT22;6175;50.956;11.064;2022-12-08T01:54:42;2.80;99.90
12225;DHT22;6175;50.956;11.064;2022-12-08T01:57:14;2.80;99.90
12225;DHT22;6175;50.956;11.064;2022-12-08T01:59:47;2.70;99.90
12225;DHT22;6175;50.956;11.064;2022-12-08T02:07:11;2.80;99.90
12225;DHT22;6175;50.956;11.064;2022-12-08T02:09:39;2.90;99.90
12225;DHT22;6175;50.956;11.064;2022-12-08T02:12:07;2.70;99.90
12225;DHT22;6175;50.956;11.064;2022-12-08T02:17:13;2.90;99.90
12225;DHT22;6175;50.956;11.064;2022-12-08T02:22:51;2.80;99.90
12225;DHT22;6175;50.956;11.064;2022-12-08T02:25:26;2.80;99.90
12225;DHT22;6175;50.956;11.064;2022-12-08T02:28:02;2.80;99.90
12225;DHT22;6175;50.956;11.064;2022-12-08T02:30:45;2.90;99.90
12225;DHT22;6175;50.956;11.064;2022-12-08T02:33:57;2.80;99.90
12225;DHT22;6175;50.956;11.064;2022-12-08T02:36:31;2.90;99.90
12225;DHT22;6175;50.956;11.064;2022-12-08T02:39:08;2.80;99.90
12225;DHT22;6175;50.956;11.064;2022-12-08T02:41:43;2.90;99.90
12225;DHT22;6175;50.956;11.064;2022-12-08T02:44:15;2.90;99.90
12225;DHT22;6175;50.956;11.064;2022-12-08T02:46:49;2.80;99.90
12225;DHT22;6175;50.956;11.064;2022-12-08T02:49:19;2.80;99.90
12225;DHT22;6175;50.956;11.064;2022-12-08T02:54:14;2.70;99.90
12225;DHT22;6175;50.956;11.064;2022-12-08T02:56:59;2.70;99.90
12225;DHT22;6175;50.956;11.064;2022-12-08T02:59:41;2.70;99.90
12225;DHT22;6175;50.956;11.064;2022-12-08T03:02:34;2.70;99.90
12225;DHT22;6175;50.956;11.064;2022-12-08T03:05:17;2.60;99.90
12225;DHT22;6175;50.956;11.064;2022-12-08T03:07:54;2.60;99.90
12225;DHT22;6175;50.956;11.064;2022-12-08T03:10:28;2.60;99.90
12225;DHT22;6175;50.956;11.064;2022-12-08T03:13:00;2.60;99.90
12225;DHT22;6175;50.956;11.064;2022-12-08T03:15:30;2.60;99.90
12225;DHT22;6175;50.956;11.064;2022-12-08T03:17:58;2.60;99.90
12225;DHT22;6175;50.956;11.064;2022-12-08T03:20:29;2.60;99.90
12225;DHT22;6175;50.956;11.064;2022-12-08T03:22:58;2.50;99.90
12225;DHT22;6175;50.956;11.064;2022-12-08T03:25:28;2.50;99.90
12225;DHT22;6175;50.956;11.064;2022-12-08T03:27:56;2.60;99.90
12225;DHT22;6175;50.956;11.064;2022-12-08T03:30:26;2.50;99.90
12225;DHT22;6175;50.956;11.064;2022-12-08T03:32:58;2.40;99.90
12225;DHT22;6175;50.956;11.064;2022-12-08T03:35:32;2.50;99.90
12225;DHT22;6175;50.956;11.064;2022-12-08T03:38:03;2.50;99.90
12225;DHT22;6175;50.956;11.064;2022-12-08T03:47:53;2.50;99.90
12225;DHT22;6175;50.956;11.064;2022-12-08T03:52:49;2.50;99.90
12225;DHT22;6175;50.956;11.064;2022-12-08T03:57:43;2.40;99.90
12225;DHT22;6175;50.956;11.064;2022-12-08T04:00:13;2.40;99.90
12225;DHT22;6175;50.956;11.064;2022-12-08T04:02:41;2.40;99.90
12225;DHT22;6175;50.956;11.064;2022-12-08T04:10:05;2.20;99.90
12225;DHT22;6175;50.956;11.064;2022-12-08T04:24:49;2.40;99.90
12225;DHT22;6175;50.956;11.064;2022-12-08T04:27:17;2.20;99.90
12225;DHT22;6175;50.956;11.064;2022-12-08T04:39:33;2.30;99.90
12225;DHT22;6175;50.956;11.064;2022-12-08T04:44:28;2.30;99.90
12225;DHT22;6175;50.956;11.064;2022-12-08T04:46:55;2.20;99.90
12225;DHT22;6175;50.956;11.064;2022-12-08T05:01:40;2.10;99.90
12225;DHT22;6175;50.956;11.064;2022-12-08T05:06:34;2.20;99.90
12225;DHT22;6175;50.956;11.064;2022-12-08T05:13:56;1.90;99.90
12225;DHT22;6175;50.956;11.064;2022-12-08T05:18:52;2.00;99.90
12225;DHT22;6175;50.956;11.064;2022-12-08T05:26:14;1.90;99.90
12225;DHT22;6175;50.956;11.064;2022-12-08T05:36:05;1.90;99.90
12225;DHT22;6175;50.956;11.064;2022-12-08T05:38:32;1.90;99.90
12225;DHT22;6175;50.956;11.064;2022-12-08T05:45:54;1.70;99.90
12225;DHT22;6175;50.956;11.064;2022-12-08T05:48:21;1.80;99.90
12225;DHT22;6175;50.956;11.064;2022-12-08T05:50:48;1.70;99.90
12225;DHT22;6175;50.956;11.064;2022-12-08T05:53:18;1.70;99.90
12225;DHT22;6175;50.956;11.064;2022-12-08T05:55:46;1.70;99.90
12225;DHT22;6175;50.956;11.064;2022-12-08T05:58:15;1.70;99.90
12225;DHT22;6175;50.956;11.064;2022-12-08T06:00:43;1.70;99.90
12225;DHT22;6175;50.956;11.064;2022-12-08T06:05:40;1.70;99.90
12225;DHT22;6175;50.956;11.064;2022-12-08T06:08:07;1.80;99.90
12225;DHT22;6175;50.956;11.064;2022-12-08T06:10:36;1.70;99.90
12225;DHT22;6175;50.956;11.064;2022-12-08T06:15:32;1.90;99.90
12225;DHT22;6175;50.956;11.064;2022-12-08T06:20:26;1.90;99.90
12225;DHT22;6175;50.956;11.064;2022-12-08T06:22:54;1.80;99.90
12225;DHT22;6175;50.956;11.064;2022-12-08T06:25:22;1.90;99.90
12225;DHT22;6175;50.956;11.064;2022-12-08T06:27:50;1.90;99.90
12225;DHT22;6175;50.956;11.064;2022-12-08T06:30:17;1.90;99.90
12225;DHT22;6175;50.956;11.064;2022-12-08T06:40:07;2.00;99.90
12225;DHT22;6175;50.956;11.064;2022-12-08T06:42:34;2.10;99.90
12225;DHT22;6175;50.956;11.064;2022-12-08T06:45:14;2.20;99.90
12225;DHT22;6175;50.956;11.064;2022-12-08T06:50:09;2.30;99.90
12225;DHT22;6175;50.956;11.064;2022-12-08T06:55:06;2.50;99.90
12225;DHT22;6175;50.956;11.064;2022-12-08T06:57:33;2.50;99.90
12225;DHT22;6175;50.956;11.064;2022-12-08T07:00:00;2.50;99.90
12225;DHT22;6175;50.956;11.064;2022-12-08T07:02:29;2.50;99.90
12225;DHT22;6175;50.956;11.064;2022-12-08T07:04:56;2.60;99.90
12225;DHT22;6175;50.956;11.064;2022-12-08T07:07:23;2.60;99.90
12225;DHT22;6175;50.956;11.064;2022-12-08T07:19:40;2.70;99.90
12225;DHT22;6175;50.956;11.064;2022-12-08T07:31:57;2.70;99.90
12225;DHT22;6175;50.956;11.064;2022-12-08T07:34:24;2.70;99.90
12225;DHT22;6175;50.956;11.064;2022-12-08T07:36:53;5.50;99.90
12225;DHT22;6175;50.956;11.064;2022-12-08T07:44:15;2.70;99.90
12225;DHT22;6175;50.956;11.064;2022-12-08T07:51:38;2.70;99.90
12225;DHT22;6175;50.956;11.064;2022-12-08T07:54:09;2.70;99.90
12225;DHT22;6175;50.956;11.064;2022-12-08T08:01:33;2.70;99.90
12225;DHT22;6175;50.956;11.064;2022-12-08T08:04:02;2.60;99.90
12225;DHT22;6175;50.956;11.064;2022-12-08T08:06:30;2.60;99.90
12225;DHT22;6175;50.956;11.064;2022-12-08T08:11:26;2.60;99.90
12225;DHT22;6175;50.956;11.064;2022-12-08T08:13:53;2.70;99.90
12225;DHT22;6175;50.956;11.064;2022-12-08T08:16:20;2.70;99.90
12225;DHT22;6175;50.956;11.064;2022-12-08T08:18:48;2.70;99.90
12225;DHT22;6175;50.956;11.064;2022-12-08T08:21:15;2.70;99.90
12225;DHT22;6175;50.956;11.064;2022-12-08T08:26:09;2.80;99.90
12225;DHT22;6175;50.956;11.064;2022-12-08T08:28:39;2.80;99.90
12225;DHT22;6175;50.956;11.064;2022-12-08T08:36:06;2.90;99.90
12225;DHT22;6175;50.956;11.064;2022-12-08T08:41:06;3.00;99.90
12225;DHT22;6175;50.956;11.064;2022-12-08T08:46:03;3.20;99.90
12225;DHT22;6175;50.956;11.064;2022-12-08T08:48:30;3.10;99.90
12225;DHT22;6175;50.956;11.064;2022-12-08T08:50:57;3.10;99.90
12225;DHT22;6175;50.956;11.064;2022-12-08T08:53:25;3.10;99.90
12225;DHT22;6175;50.956;11.064;2022-12-08T08:58:19;3.20;99.90
12225;DHT22;6175;50.956;11.064;2022-12-08T09:03:14;3.10;99.90
12225;DHT22;6175;50.956;11.064;2022-12-08T09:15:32;3.40;99.90
12225;DHT22;6175;50.956;11.064;2022-12-08T09:17:59;3.50;99.90
12225;DHT22;6175;50.956;11.064;2022-12-08T09:20:28;3.60;99.90
12225;DHT22;6175;50.956;11.064;2022-12-08T09:22:54;3.60;99.90
12225;DHT22;6175;50.956;11.064;2022-12-08T09:30:16;3.80;99.90
12225;DHT22;6175;50.956;11.064;2022-12-08T09:32:43;3.90;99.90
12225;DHT22;6175;50.956;11.064;2022-12-08T09:35:10;3.80;99.90
12225;DHT22;6175;50.956;11.064;2022-12-08T09:40:07;3.90;99.90
12225;DHT22;6175;50.956;11.064;2022-12-08T09:42:42;3.90;99.90
12225;DHT22;6175;50.956;11.064;2022-12-08T09:45:11;3.90;99.90
12225;DHT22;6175;50.956;11.064;2022-12-08T09:47:42;3.90;99.90
12225;DHT22;6175;50.956;11.064;2022-12-08T09:50:14;4.00;99.90
12225;DHT22;6175;50.956;11.064;2022-12-08T09:52:50;4.10;99.90
12225;DHT22;6175;50.956;11.064;2022-12-08T09:55:23;4.10;99.90
12225;DHT22;6175;50.956;11.064;2022-12-08T09:57:57;4.10;99.90
12225;DHT22;6175;50.956;11.064;2022-12-08T10:00:26;4.10;99.90
12225;DHT22;6175;50.956;11.064;2022-12-08T10:02:55;4.10;99.90
12225;DHT22;6175;50.956;11.064;2022-12-08T10:05:23;4.10;99.90
12225;DHT22;6175;50.956;11.064;2022-12-08T10:07:59;4.10;99.90
12225;DHT22;6175;50.956;11.064;2022-12-08T10:10:37;5.80;99.90
12225;DHT22;6175;50.956;11.064;2022-12-08T10:13:07;4.20;99.90
12225;DHT22;6175;50.956;11.064;2022-12-08T10:15:42;4.30;99.90
12225;DHT22;6175;50.956;11.064;2022-12-08T10:18:14;4.30;99.90
12225;DHT22;6175;50.956;11.064;2022-12-08T10:20:43;4.30;99.90
12225;DHT22;6175;50.956;11.064;2022-12-08T10:23:21;4.30;99.90
12225;DHT22;6175;50.956;11.064;2022-12-08T10:25:55;4.30;99.90
12225;DHT22;6175;50.956;11.064;2022-12-08T10:28:23;4.30;99.90
12225;DHT22;6175;50.956;11.064;2022-12-08T10:33:20;4.20;99.90
12225;DHT22;6175;50.956;11.064;2022-12-08T10:35:48;4.20;99.90
12225;DHT22;6175;50.956;11.064;2022-12-08T10:38:20;4.30;99.90
12225;DHT22;6175;50.956;11.064;2022-12-08T10:40:50;4.30;99.90
12225;DHT22;6175;50.956;11.064;2022-12-08T10:43:20;3.40;99.90
12225;DHT22;6175;50.956;11.064;2022-12-08T10:45:48;4.30;99.90
12225;DHT22;6175;50.956;11.064;2022-12-08T10:48:18;4.30;99.90
12225;DHT22;6175;50.956;11.064;2022-12-08T10:50:46;4.30;99.90
12225;DHT22;6175;50.956;11.064;2022-12-08T10:53:22;4.40;99.90
12225;DHT22;6175;50.956;11.064;2022-12-08T10:55:51;4.40;99.90
12225;DHT22;6175;50.956;11.064;2022-12-08T10:58:26;4.50;99.90
12225;DHT22;6175;50.956;11.064;2022-12-08T11:00:55;4.50;99.90
12225;DHT22;6175;50.956;11.064;2022-12-08T11:03:27;4.70;99.90
12225;DHT22;6175;50.956;11.064;2022-12-08T11:05:56;4.50;99.90
12225;DHT22;6175;50.956;11.064;2022-12-08T11:08:26;4.70;99.90
12225;DHT22;6175;50.956;11.064;2022-12-08T11:10:54;4.70;99.90
12225;DHT22;6175;50.956;11.064;2022-12-08T11:13:23;4.70;99.90
12225;DHT22;6175;50.956;11.064;2022-12-08T11:15:51;4.70;99.90
12225;DHT22;6175;50.956;11.064;2022-12-08T11:18:38;4.70;99.90
12225;DHT22;6175;50.956;11.064;2022-12-08T11:21:10;4.60;99.90
12225;DHT22;6175;50.956;11.064;2022-12-08T11:23:40;4.60;99.90
12225;DHT22;6175;50.956;11.064;2022-12-08T11:26:16;4.60;99.90
12225;DHT22;6175;50.956;11.064;2022-12-08T11:31:29;4.50;99.90
12225;DHT22;6175;50.956;11.064;2022-12-08T11:36:27;4.50;99.90
12225;DHT22;6175;50.956;11.064;2022-12-08T11:38:59;4.40;99.90
12225;DHT22;6175;50.956;11.064;2022-12-08T11:41:30;4.40;99.90
12225;DHT22;6175;50.956;11.064;2022-12-08T11:44:04;4.40;99.90
12225;DHT22;6175;50.956;11.064;2022-12-08T11:46:37;4.30;99.90
12225;DHT22;6175;50.956;11.064;2022-12-08T11:49:09;4.30;99.90
12225;DHT22;6175;50.956;11.064;2022-12-08T11:51:40;4.30;99.90
12225;DHT22;6175;50.956;11.064;2022-12-08T11:54:17;4.30;99.90
12225;DHT22;6175;50.956;11.064;2022-12-08T11:56:48;4.30;99.90
12225;DHT22;6175;50.956;11.064;2022-12-08T11:59:23;4.30;99.90
12225;DHT22;6175;50.956;11.064;2022-12-08T12:04:23;4.30;99.90
12225;DHT22;6175;50.956;11.064;2022-12-08T12:07:11;4.30;99.90
12225;DHT22;6175;50.956;11.064;2022-12-08T12:09:55;4.20;99.90
12225;DHT22;6175;50.956;11.064;2022-12-08T12:12:34;4.20;99.90
12225;DHT22;6175;50.956;11.064;2022-12-08T12:15:23;4.20;99.90
12225;DHT22;6175;50.956;11.064;2022-12-08T12:17:56;4.20;99.90
12225;DHT22;6175;50.956;11.064;2022-12-08T12:20:29;4.20;99.90
12225;DHT22;6175;50.956;11.064;2022-12-08T12:23:00;4.30;99.90
12225;DHT22;6175;50.956;11.064;2022-12-08T12:25:33;4.30;99.90
12225;DHT22;6175;50.956;11.064;2022-12-08T12:28:03;4.30;99.90
12225;DHT22;6175;50.956;11.064;2022-12-08T12:30:48;4.30;99.90
12225;DHT22;6175;50.956;11.064;2022-12-08T12:33:16;4.30;99.90
12225;DHT22;6175;50.956;11.064;2022-12-08T12:35:44;4.40;99.90
12225;DHT22;6175;50.956;11.064;2022-12-08T12:38:20;4.40;99.90
12225;DHT22;6175;50.956;11.064;2022-12-08T12:41:04;4.40;99.90
12225;DHT22;6175;50.956;11.064;2022-12-08T12:43:34;4.40;99.90
12225;DHT22;6175;50.956;11.064;2022-12-08T12:46:36;4.50;99.90
12225;DHT22;6175;50.956;11.064;2022-12-08T12:52:38;4.50;99.90
12225;DHT22;6175;50.956;11.064;2022-12-08T12:58:21;4.50;99.90
12225;DHT22;6175;50.956;11.064;2022-12-08T13:03:17;4.60;99.90
12225;DHT22;6175;50.956;11.064;2022-12-08T13:05:48;4.50;99.90
12225;DHT22;6175;50.956;11.064;2022-12-08T13:08:20;4.50;99.90
12225;DHT22;6175;50.956;11.064;2022-12-08T13:10:57;4.50;99.90
12225;DHT22;6175;50.956;11.064;2022-12-08T13:13:26;4.50;99.90
12225;DHT22;6175;50.956;11.064;2022-12-08T13:15:55;4.50;99.90
12225;DHT22;6175;50.956;11.064;2022-12-08T13:18:24;4.40;99.90
12225;DHT22;6175;50.956;11.064;2022-12-08T13:20:55;4.40;99.90
12225;DHT22;6175;50.956;11.064;2022-12-08T13:23:41;4.30;99.90
12225;DHT22;6175;50.956;11.064;2022-12-08T13:26:18;4.30;99.90
12225;DHT22;6175;50.956;11.064;2022-12-08T13:29:20;4.40;99.90
12225;DHT22;6175;50.956;11.064;2022-12-08T13:31:50;4.40;99.90
12225;DHT22;6175;50.956;11.064;2022-12-08T13:34:31;4.40;99.90
12225;DHT22;6175;50.956;11.064;2022-12-08T13:37:07;4.40;99.90
12225;DHT22;6175;50.956;11.064;2022-12-08T13:39:45;4.40;99.90
12225;DHT22;6175;50.956;11.064;2022-12-08T13:42:20;4.40;99.90
12225;DHT22;6175;50.956;11.064;2022-12-08T13:44:54;4.40;99.90
12225;DHT22;6175;50.956;11.064;2022-12-08T13:47:27;4.30;99.90
12225;DHT22;6175;50.956;11.064;2022-12-08T13:49:59;4.30;99.90
12225;DHT22;6175;50.956;11.064;2022-12-08T13:52:31;4.30;99.90
12225;DHT22;6175;50.956;11.064;2022-12-08T13:55:01;4.30;99.90
12225;DHT22;6175;50.956;11.064;2022-12-08T13:57:31;4.30;99.90
12225;DHT22;6175;50.956;11.064;2022-12-08T14:00:03;4.30;99.90
12225;DHT22;6175;50.956;11.064;2022-12-08T14:02:35;4.30;99.90
12225;DHT22;6175;50.956;11.064;2022-12-08T14:05:03;4.30;99.90
12225;DHT22;6175;50.956;11.064;2022-12-08T14:07:31;4.30;99.90
12225;DHT22;6175;50.956;11.064;2022-12-08T14:09:58;4.30;99.90
12225;DHT22;6175;50.956;11.064;2022-12-08T14:12:27;4.40;99.90
12225;DHT22;6175;50.956;11.064;2022-12-08T14:14:58;4.30;99.90
12225;DHT22;6175;50.956;11.064;2022-12-08T14:17:27;4.30;99.90
12225;DHT22;6175;50.956;11.064;2022-12-08T14:19:56;4.30;99.90
12225;DHT22;6175;50.956;11.064;2022-12-08T14:22:23;5.50;99.90
12225;DHT22;6175;50.956;11.064;2022-12-08T14:24:52;4.30;99.90
12225;DHT22;6175;50.956;11.064;2022-12-08T14:27:21;4.30;99.90
12225;DHT22;6175;50.956;11.064;2022-12-08T14:29:50;4.20;99.90
12225;DHT22;6175;50.956;11.064;2022-12-08T14:32:28;4.20;99.90
12225;DHT22;6175;50.956;11.064;2022-12-08T14:34:58;4.10;99.90
12225;DHT22;6175;50.956;11.064;2022-12-08T14:37:27;4.10;99.90
12225;DHT22;6175;50.956;11.064;2022-12-08T14:40:01;4.00;99.90
12225;DHT22;6175;50.956;11.064;2022-12-08T14:42:29;4.00;99.90
12225;DHT22;6175;50.956;11.064;2022-12-08T14:44:59;4.00;99.90
12225;DHT22;6175;50.956;11.064;2022-12-08T14:47:32;4.00;99.90
12225;DHT22;6175;50.956;11.064;2022-12-08T14:50:00;4.00;99.90
12225;DHT22;6175;50.956;11.064;2022-12-08T14:52:28;4.00;99.90
12225;DHT22;6175;50.956;11.064;2022-12-08T14:54:57;4.00;99.90
12225;DHT22;6175;50.956;11.064;2022-12-08T14:57:30;4.00;99.90
12225;DHT22;6175;50.956;11.064;2022-12-08T15:00:06;4.00;99.90
12225;DHT22;6175;50.956;11.064;2022-12-08T15:02:40;4.00;99.90
12225;DHT22;6175;50.956;11.064;2022-12-08T15:05:11;4.00;99.90
12225;DHT22;6175;50.956;11.064;2022-12-08T15:07:45;3.90;99.90
12225;DHT22;6175;50.956;11.064;2022-12-08T15:10:23;3.90;99.90
12225;DHT22;6175;50.956;11.064;2022-12-08T15:13:03;3.90;99.90
12225;DHT22;6175;50.956;11.064;2022-12-08T15:15:44;3.90;99.90
12225;DHT22;6175;50.956;11.064;2022-12-08T15:18:15;3.80;99.90
12225;DHT22;6175;50.956;11.064;2022-12-08T15:20:45;3.70;99.90
12225;DHT22;6175;50.956;11.064;2022-12-08T15:23:21;3.80;99.90
12225;DHT22;6175;50.956;11.064;2022-12-08T15:25:48;4.00;99.90
12225;DHT22;6175;50.956;11.064;2022-12-08T15:28:17;3.80;99.90
12225;DHT22;6175;50.956;11.064;2022-12-08T15:30:45;3.70;99.90
12225;DHT22;6175;50.956;11.064;2022-12-08T15:33:13;3.70;99.90
12225;DHT22;6175;50.956;11.064;2022-12-08T15:35:41;3.70;99.90
12225;DHT22;6175;50.956;11.064;2022-12-08T15:38:16;3.70;99.90
12225;DHT22;6175;50.956;11.064;2022-12-08T15:43:11;3.60;99.90
12225;DHT22;6175;50.956;11.064;2022-12-08T15:50:35;2.70;99.90
12225;DHT22;6175;50.956;11.064;2022-12-08T15:53:02;3.60;99.90
12225;DHT22;6175;50.956;11.064;2022-12-08T15:55:29;3.60;99.90
12225;DHT22;6175;50.956;11.064;2022-12-08T15:57:56;3.60;99.90
12225;DHT22;6175;50.956;11.064;2022-12-08T16:00:27;3.50;99.90
12225;DHT22;6175;50.956;11.064;2022-12-08T16:02:58;3.60;99.90
12225;DHT22;6175;50.956;11.064;2022-12-08T16:05:26;3.50;99.90
12225;DHT22;6175;50.956;11.064;2022-12-08T16:07:54;3.50;99.90
12225;DHT22;6175;50.956;11.064;2022-12-08T16:10:23;3.50;99.90
12225;DHT22;6175;50.956;11.064;2022-12-08T16:12:51;3.50;99.90
12225;DHT22;6175;50.956;11.064;2022-12-08T16:15:38;3.50;99.90
12225;DHT22;6175;50.956;11.064;2022-12-08T16:18:06;3.50;99.90
12225;DHT22;6175;50.956;11.064;2022-12-08T16:20:33;3.50;99.90
12225;DHT22;6175;50.956;11.064;2022-12-08T16:23:02;3.50;99.90
12225;DHT22;6175;50.956;11.064;2022-12-08T16:30:23;3.40;99.90
12225;DHT22;6175;50.956;11.064;2022-12-08T16:35:18;3.50;99.90
12225;DHT22;6175;50.956;11.064;2022-12-08T16:40:14;3.40;99.90
12225;DHT22;6175;50.956;11.064;2022-12-08T16:45:14;3.40;99.90
12225;DHT22;6175;50.956;11.064;2022-12-08T16:47:43;3.40;99.90
12225;DHT22;6175;50.956;11.064;2022-12-08T16:50:13;3.40;99.90
12225;DHT22;6175;50.956;11.064;2022-12-08T16:55:10;3.40;99.90
12225;DHT22;6175;50.956;11.064;2022-12-08T16:57:39;3.40;99.90
12225;DHT22;6175;50.956;11.064;2022-12-08T17:00:09;3.40;99.90
12225;DHT22;6175;50.956;11.064;2022-12-08T17:02:36;3.30;99.90
12225;DHT22;6175;50.956;11.064;2022-12-08T17:05:04;3.30;99.90
12225;DHT22;6175;50.956;11.064;2022-12-08T17:09:58;3.40;99.90
12225;DHT22;6175;50.956;11.064;2022-12-08T17:12:27;3.30;99.90
12225;DHT22;6175;50.956;11.064;2022-12-08T17:14:57;3.40;99.90
12225;DHT22;6175;50.956;11.064;2022-12-08T17:32:09;3.40;99.90
12225;DHT22;6175;50.956;11.064;2022-12-08T17:34:36;3.40;99.90
12225;DHT22;6175;50.956;11.064;2022-12-08T17:49:22;3.40;99.90
12225;DHT22;6175;50.956;11.064;2022-12-08T17:51:52;3.30;99.90
12225;DHT22;6175;50.956;11.064;2022-12-08T17:54:20;3.30;99.90
12225;DHT22;6175;50.956;11.064;2022-12-08T17:59:14;3.40;99.90
12225;DHT22;6175;50.956;11.064;2022-12-08T18:01:41;3.30;99.90
12225;DHT22;6175;50.956;11.064;2022-12-08T18:04:09;3.40;99.90
12225;DHT22;6175;50.956;11.064;2022-12-08T18:06:39;3.20;99.90
12225;DHT22;6175;50.956;11.064;2022-12-08T18:09:06;3.30;99.90
12225;DHT22;6175;50.956;11.064;2022-12-08T18:11:34;7.40;99.90
12225;DHT22;6175;50.956;11.064;2022-12-08T18:14:02;3.30;99.90
12225;DHT22;6175;50.956;11.064;2022-12-08T18:16:36;3.30;99.90
12225;DHT22;6175;50.956;11.064;2022-12-08T18:19:04;3.30;99.90
12225;DHT22;6175;50.956;11.064;2022-12-08T18:24:00;3.30;99.90
12225;DHT22;6175;50.956;11.064;2022-12-08T18:26:28;3.30;99.90
12225;DHT22;6175;50.956;11.064;2022-12-08T18:31:23;3.20;99.90
12225;DHT22;6175;50.956;11.064;2022-12-08T18:33:51;3.30;99.90
12225;DHT22;6175;50.956;11.064;2022-12-08T18:36:22;6.40;99.90
12225;DHT22;6175;50.956;11.064;2022-12-08T18:38:50;3.30;99.90
12225;DHT22;6175;50.956;11.064;2022-12-08T18:41:20;3.30;99.90
12225;DHT22;6175;50.956;11.064;2022-12-08T18:43:49;3.30;99.90
12225;DHT22;6175;50.956;11.064;2022-12-08T18:48:46;3.30;99.90
12225;DHT22;6175;50.956;11.064;2022-12-08T18:51:15;3.30;99.90
12225;DHT22;6175;50.956;11.064;2022-12-08T18:53:42;3.30;99.90
12225;DHT22;6175;50.956;11.064;2022-12-08T18:56:21;3.30;99.90
12225;DHT22;6175;50.956;11.064;2022-12-08T19:01:17;3.20;99.90
12225;DHT22;6175;50.956;11.064;2022-12-08T19:03:44;3.30;99.90
12225;DHT22;6175;50.956;11.064;2022-12-08T19:06:11;3.20;99.90
12225;DHT22;6175;50.956;11.064;2022-12-08T19:08:38;3.10;99.90
12225;DHT22;6175;50.956;11.064;2022-12-08T19:11:16;3.20;99.90
12225;DHT22;6175;50.956;11.064;2022-12-08T19:13:44;3.20;99.90
12225;DHT22;6175;50.956;11.064;2022-12-08T19:16:12;3.20;99.90
12225;DHT22;6175;50.956;11.064;2022-12-08T19:21:06;3.20;99.90
12225;DHT22;6175;50.956;11.064;2022-12-08T19:23:34;3.20;99.90
12225;DHT22;6175;50.956;11.064;2022-12-08T19:26:01;3.10;99.90
12225;DHT22;6175;50.956;11.064;2022-12-08T19:28:29;3.10;99.90
12225;DHT22;6175;50.956;11.064;2022-12-08T19:30:57;3.10;99.90
12225;DHT22;6175;50.956;11.064;2022-12-08T19:40:46;3.00;99.90
12225;DHT22;6175;50.956;11.064;2022-12-08T19:46:12;3.50;99.90
12225;DHT22;6175;50.956;11.064;2022-12-08T19:48:41;3.10;99.90
12225;DHT22;6175;50.956;11.064;2022-12-08T19:51:08;3.10;99.90
12225;DHT22;6175;50.956;11.064;2022-12-08T19:53:35;3.10;99.90
12225;DHT22;6175;50.956;11.064;2022-12-08T20:00:57;3.00;99.90
12225;DHT22;6175;50.956;11.064;2022-12-08T20:03:26;3.00;99.90
12225;DHT22;6175;50.956;11.064;2022-12-08T20:18:28;3.00;99.90
12225;DHT22;6175;50.956;11.064;2022-12-08T20:20:55;3.00;99.90
12225;DHT22;6175;50.956;11.064;2022-12-08T20:25:49;3.00;99.90
12225;DHT22;6175;50.956;11.064;2022-12-08T20:35:42;3.00;99.90
12225;DHT22;6175;50.956;11.064;2022-12-08T20:38:09;2.90;99.90
12225;DHT22;6175;50.956;11.064;2022-12-08T20:40:40;2.90;99.90
12225;DHT22;6175;50.956;11.064;2022-12-08T20:48:02;2.70;99.90
12225;DHT22;6175;50.956;11.064;2022-12-08T20:52:58;2.70;99.90
12225;DHT22;6175;50.956;11.064;2022-12-08T20:55:25;2.70;99.90
12225;DHT22;6175;50.956;11.064;2022-12-08T20:57:52;2.70;99.90
12225;DHT22;6175;50.956;11.064;2022-12-08T21:00:19;2.60;99.90
12225;DHT22;6175;50.956;11.064;2022-12-08T21:02:50;2.60;99.90
12225;DHT22;6175;50.956;11.064;2022-12-08T21:07:44;2.50;99.90
12225;DHT22;6175;50.956;11.064;2022-12-08T21:10:13;2.50;99.90
12225;DHT22;6175;50.956;11.064;2022-12-08T21:15:09;2.50;99.90
12225;DHT22;6175;50.956;11.064;2022-12-08T21:17:37;2.40;99.90
12225;DHT22;6175;50.956;11.064;2022-12-08T21:20:05;2.40;99.90
12225;DHT22;6175;50.956;11.064;2022-12-08T21:27:28;2.30;99.90
12225;DHT22;6175;50.956;11.064;2022-12-08T21:32:22;2.30;99.90
12225;DHT22;6175;50.956;11.064;2022-12-08T21:42:11;2.20;99.90
12225;DHT22;6175;50.956;11.064;2022-12-08T21:44:56;2.20;99.90
12225;DHT22;6175;50.956;11.064;2022-12-08T21:52:18;2.20;99.90
12225;DHT22;6175;50.956;11.064;2022-12-08T21:54:45;2.20;99.90
12225;DHT22;6175;50.956;11.064;2022-12-08T22:02:10;2.20;99.90
12225;DHT22;6175;50.956;11.064;2022-12-08T22:04:37;3.40;99.90
12225;DHT22;6175;50.956;11.064;2022-12-08T22:07:05;2.20;99.90
12225;DHT22;6175;50.956;11.064;2022-12-08T22:19:23;2.10;99.90
12225;DHT22;6175;50.956;11.064;2022-12-08T22:21:50;2.10;99.90
12225;DHT22;6175;50.956;11.064;2022-12-08T22:36:34;2.00;99.90
12225;DHT22;6175;50.956;11.064;2022-12-08T22:46:25;2.00;99.90
12225;DHT22;6175;50.956;11.064;2022-12-08T22:48:53;2.10;99.90
12225;DHT22;6175;50.956;11.064;2022-12-08T22:51:20;2.00;99.90
12225;DHT22;6175;50.956;11.064;2022-12-08T22:53:48;2.00;99.90